sensor_id;sensor_type;location;lat;lon;timestamp;pressure;altitude;pressure_sealevel;temperature;humidity
54122;BME280;40029;58.708;50.190;2023-07-02T00:00:37;98058.88;;;19.98;53.53
54122;BME280;40029;58.708;50.190;2023-07-02T00:03:09;98072.13;;;20.06;53.38
54122;BME280;40029;58.708;50.190;2023-07-02T00:05:41;98073.13;;;20.05;53.51
54122;BME280;40029;58.708;50.190;2023-07-02T00:08:12;98027.56;;;19.77;53.40
54122;BME280;40029;58.708;50.190;2023-07-02T00:10:43;98036.19;;;19.87;53.54
54122;BME280;40029;58.708;50.190;2023-07-02T00:13:15;98079.56;;;20.11;53.44
54122;BME280;40029;58.708;50.190;2023-07-02T00:15:46;98029.94;;;19.88;53.32
54122;BME280;40029;58.708;50.190;2023-07-02T00:18:17;98081.09;;;20.21;53.46
54122;BME280;40029;58.708;50.190;2023-07-02T00:21:06;98060.75;;;20.14;53.46
54122;BME280;40029;58.708;50.190;2023-07-02T00:23:38;98072.66;;;20.26;53.31
54122;BME280;40029;58.708;50.190;2023-07-02T00:26:09;98064.25;;;20.22;53.38
54122;BME280;40029;58.708;50.190;2023-07-02T00:28:40;98017.56;;;19.97;53.30
54122;BME280;40029;58.708;50.190;2023-07-02T00:31:11;98063.09;;;20.25;53.51
54122;BME280;40029;58.708;50.190;2023-07-02T00:33:43;98076.34;;;20.33;53.33
54122;BME280;40029;58.708;50.190;2023-07-02T00:36:14;98055.00;;;20.27;53.41
54122;BME280;40029;58.708;50.190;2023-07-02T00:38:47;98054.00;;;20.28;53.38
54122;BME280;40029;58.708;50.190;2023-07-02T00:41:19;98063.31;;;20.40;53.59
54122;BME280;40029;58.708;50.190;2023-07-02T00:43:50;98025.72;;;20.20;53.98
54122;BME280;40029;58.708;50.190;2023-07-02T00:46:26;97970.13;;;19.95;53.82
54122;BME280;40029;58.708;50.190;2023-07-02T00:48:58;97985.38;;;20.10;54.02
54122;BME280;40029;58.708;50.190;2023-07-02T00:51:31;98022.13;;;20.37;53.76
54122;BME280;40029;58.708;50.190;2023-07-02T00:54:02;98051.28;;;20.62;53.74
54122;BME280;40029;58.708;50.190;2023-07-02T00:56:34;98041.88;;;20.67;53.47
54122;BME280;40029;58.708;50.190;2023-07-02T00:59:23;98031.13;;;20.61;53.48
54122;BME280;40029;58.708;50.190;2023-07-02T01:01:55;98047.47;;;20.72;53.08
54122;BME280;40029;58.708;50.190;2023-07-02T01:04:27;98020.03;;;20.65;52.67
54122;BME280;40029;58.708;50.190;2023-07-02T01:06:59;98030.97;;;20.79;52.58
54122;BME280;40029;58.708;50.190;2023-07-02T01:09:30;98025.81;;;20.77;52.02
54122;BME280;40029;58.708;50.190;2023-07-02T01:12:04;98027.81;;;20.83;52.15
54122;BME280;40029;58.708;50.190;2023-07-02T01:14:58;98014.56;;;20.75;52.10
54122;BME280;40029;58.708;50.190;2023-07-02T01:17:35;98041.88;;;20.92;51.70
54122;BME280;40029;58.708;50.190;2023-07-02T01:20:30;98065.53;;;21.42;50.64
54122;BME280;40029;58.708;50.190;2023-07-02T01:23:02;98052.78;;;21.13;51.01
54122;BME280;40029;58.708;50.190;2023-07-02T01:25:52;98017.72;;;20.95;51.15
54122;BME280;40029;58.708;50.190;2023-07-02T01:28:41;98051.44;;;21.17;51.03
54122;BME280;40029;58.708;50.190;2023-07-02T01:31:13;98068.38;;;21.33;51.07
54122;BME280;40029;58.708;50.190;2023-07-02T01:33:44;98056.25;;;21.30;50.72
54122;BME280;40029;58.708;50.190;2023-07-02T01:36:15;98030.59;;;21.14;51.00
54122;BME280;40029;58.708;50.190;2023-07-02T01:38:46;98059.56;;;21.32;50.88
54122;BME280;40029;58.708;50.190;2023-07-02T01:41:49;98009.41;;;21.06;50.72
54122;BME280;40029;58.708;50.190;2023-07-02T01:44:21;98071.97;;;21.40;50.55
54122;BME280;40029;58.708;50.190;2023-07-02T01:46:53;98057.59;;;21.34;50.63
54122;BME280;40029;58.708;50.190;2023-07-02T01:49:26;98027.13;;;21.14;50.40
54122;BME280;40029;58.708;50.190;2023-07-02T01:51:58;98049.94;;;21.39;50.33
54122;BME280;40029;58.708;50.190;2023-07-02T01:54:30;98053.78;;;21.37;50.25
54122;BME280;40029;58.708;50.190;2023-07-02T01:57:02;98031.56;;;21.30;50.20
54122;BME280;40029;58.708;50.190;2023-07-02T01:59:53;98058.91;;;21.46;50.52
54122;BME280;40029;58.708;50.190;2023-07-02T02:02:24;98065.19;;;21.54;50.09
54122;BME280;40029;58.708;50.190;2023-07-02T02:04:55;98029.75;;;21.38;50.06
54122;BME280;40029;58.708;50.190;2023-07-02T02:07:27;98073.06;;;21.70;50.03
54122;BME280;40029;58.708;50.190;2023-07-02T02:09:59;98023.44;;;21.48;50.10
54122;BME280;40029;58.708;50.190;2023-07-02T02:12:30;98066.09;;;21.77;50.26
54122;BME280;40029;58.708;50.190;2023-07-02T02:15:02;98045.59;;;21.71;49.75
54122;BME280;40029;58.708;50.190;2023-07-02T02:17:35;98064.03;;;21.95;49.29
54122;BME280;40029;58.708;50.190;2023-07-02T02:20:07;98065.00;;;22.03;49.30
54122;BME280;40029;58.708;50.190;2023-07-02T02:22:39;98074.56;;;22.12;48.79
54122;BME280;40029;58.708;50.190;2023-07-02T02:25:10;98068.13;;;22.14;48.33
54122;BME280;40029;58.708;50.190;2023-07-02T02:27:59;98038.28;;;22.04;48.31
54122;BME280;40029;58.708;50.190;2023-07-02T02:30:30;98029.81;;;22.09;48.47
54122;BME280;40029;58.708;50.190;2023-07-02T02:33:02;98070.34;;;22.34;48.57
54122;BME280;40029;58.708;50.190;2023-07-02T02:35:34;98054.66;;;22.24;48.32
54122;BME280;40029;58.708;50.190;2023-07-02T02:38:06;98077.56;;;22.48;48.17
54122;BME280;40029;58.708;50.190;2023-07-02T02:40:37;98081.16;;;22.55;47.74
54122;BME280;40029;58.708;50.190;2023-07-02T02:43:11;98042.09;;;22.41;47.67
54122;BME280;40029;58.708;50.190;2023-07-02T02:45:43;98060.88;;;22.62;47.92
54122;BME280;40029;58.708;50.190;2023-07-02T02:48:14;98051.28;;;22.61;47.10
54122;BME280;40029;58.708;50.190;2023-07-02T02:50:45;98031.09;;;22.52;46.84
54122;BME280;40029;58.708;50.190;2023-07-02T02:53:16;98041.66;;;22.60;46.79
54122;BME280;40029;58.708;50.190;2023-07-02T02:55:48;98082.22;;;23.00;46.78
54122;BME280;40029;58.708;50.190;2023-07-02T02:58:19;98069.88;;;23.07;46.29
54122;BME280;40029;58.708;50.190;2023-07-02T03:00:50;98078.69;;;23.23;46.67
54122;BME280;40029;58.708;50.190;2023-07-02T03:03:23;98091.19;;;23.37;46.67
54122;BME280;40029;58.708;50.190;2023-07-02T03:05:55;98082.75;;;23.48;46.13
54122;BME280;40029;58.708;50.190;2023-07-02T03:08:26;98049.56;;;23.44;46.13
54122;BME280;40029;58.708;50.190;2023-07-02T03:10:58;98088.53;;;23.75;45.49
54122;BME280;40029;58.708;50.190;2023-07-02T03:13:29;98053.50;;;23.71;44.55
54122;BME280;40029;58.708;50.190;2023-07-02T03:16:18;98023.41;;;23.71;44.49
54122;BME280;40029;58.708;50.190;2023-07-02T03:18:52;98059.06;;;23.91;44.41
54122;BME280;40029;58.708;50.190;2023-07-02T03:21:23;98076.09;;;24.11;44.29
54122;BME280;40029;58.708;50.190;2023-07-02T03:23:55;98026.88;;;23.86;44.03
54122;BME280;40029;58.708;50.190;2023-07-02T03:26:26;98055.63;;;24.12;43.83
54122;BME280;40029;58.708;50.190;2023-07-02T03:28:57;98079.00;;;24.31;43.05
54122;BME280;40029;58.708;50.190;2023-07-02T03:31:29;98029.72;;;24.20;43.03
54122;BME280;40029;58.708;50.190;2023-07-02T03:34:03;98031.47;;;24.43;42.73
54122;BME280;40029;58.708;50.190;2023-07-02T03:36:36;98046.34;;;24.59;42.23
54122;BME280;40029;58.708;50.190;2023-07-02T03:39:08;98079.66;;;24.69;41.83
54122;BME280;40029;58.708;50.190;2023-07-02T03:41:59;98032.66;;;24.62;41.36
54122;BME280;40029;58.708;50.190;2023-07-02T03:44:31;98031.84;;;24.61;41.16
54122;BME280;40029;58.708;50.190;2023-07-02T03:47:02;98059.88;;;24.79;41.16
54122;BME280;40029;58.708;50.190;2023-07-02T03:49:33;98063.09;;;24.74;41.60
54122;BME280;40029;58.708;50.190;2023-07-02T03:52:04;98053.28;;;24.75;41.66
54122;BME280;40029;58.708;50.190;2023-07-02T03:54:54;98064.41;;;24.85;41.70
54122;BME280;40029;58.708;50.190;2023-07-02T03:57:25;98041.44;;;24.77;41.39
54122;BME280;40029;58.708;50.190;2023-07-02T03:59:57;98067.91;;;25.07;41.13
54122;BME280;40029;58.708;50.190;2023-07-02T04:02:28;98068.09;;;25.05;41.21
54122;BME280;40029;58.708;50.190;2023-07-02T04:05:00;98041.00;;;25.02;40.66
54122;BME280;40029;58.708;50.190;2023-07-02T04:07:34;98060.22;;;25.18;40.52
54122;BME280;40029;58.708;50.190;2023-07-02T04:10:23;98047.13;;;25.17;40.18
54122;BME280;40029;58.708;50.190;2023-07-02T04:12:55;98033.28;;;25.07;39.82
54122;BME280;40029;58.708;50.190;2023-07-02T04:15:26;98043.38;;;25.11;39.69
54122;BME280;40029;58.708;50.190;2023-07-02T04:17:57;98047.94;;;25.17;39.76
54122;BME280;40029;58.708;50.190;2023-07-02T04:20:28;98065.19;;;25.22;39.79
54122;BME280;40029;58.708;50.190;2023-07-02T04:23:00;98028.16;;;24.84;40.26
54122;BME280;40029;58.708;50.190;2023-07-02T04:25:31;98077.63;;;25.14;40.58
54122;BME280;40029;58.708;50.190;2023-07-02T04:28:02;98060.75;;;25.07;40.21
54122;BME280;40029;58.708;50.190;2023-07-02T04:30:33;98066.06;;;25.07;40.28
54122;BME280;40029;58.708;50.190;2023-07-02T04:33:05;98042.47;;;25.04;39.81
54122;BME280;40029;58.708;50.190;2023-07-02T04:35:55;98045.84;;;25.13;39.72
54122;BME280;40029;58.708;50.190;2023-07-02T04:38:28;98035.25;;;25.20;39.61
54122;BME280;40029;58.708;50.190;2023-07-02T04:40:59;98060.38;;;25.38;39.92
54122;BME280;40029;58.708;50.190;2023-07-02T04:43:36;98038.88;;;25.12;39.96
54122;BME280;40029;58.708;50.190;2023-07-02T04:46:07;98024.53;;;24.91;40.31
54122;BME280;40029;58.708;50.190;2023-07-02T04:48:38;98060.56;;;25.09;40.60
54122;BME280;40029;58.708;50.190;2023-07-02T04:51:28;98027.28;;;24.98;40.52
54122;BME280;40029;58.708;50.190;2023-07-02T04:53:59;98031.59;;;25.06;40.66
54122;BME280;40029;58.708;50.190;2023-07-02T04:56:30;98025.94;;;25.09;40.60
54122;BME280;40029;58.708;50.190;2023-07-02T04:59:02;98050.34;;;25.12;40.98
54122;BME280;40029;58.708;50.190;2023-07-02T05:01:33;98068.19;;;25.40;40.76
54122;BME280;40029;58.708;50.190;2023-07-02T05:04:22;98044.84;;;25.42;40.78
54122;BME280;40029;58.708;50.190;2023-07-02T05:06:54;98058.63;;;25.52;40.78
54122;BME280;40029;58.708;50.190;2023-07-02T05:09:25;98062.19;;;25.59;40.36
54122;BME280;40029;58.708;50.190;2023-07-02T05:11:57;97983.97;;;25.17;40.18
54122;BME280;40029;58.708;50.190;2023-07-02T05:14:28;98040.31;;;25.42;40.89
54122;BME280;40029;58.708;50.190;2023-07-02T05:16:59;98054.03;;;25.39;40.73
54122;BME280;40029;58.708;50.190;2023-07-02T05:19:30;98063.25;;;25.37;40.78
54122;BME280;40029;58.708;50.190;2023-07-02T05:22:20;98019.13;;;25.06;40.69
54122;BME280;40029;58.708;50.190;2023-07-02T05:24:51;98024.59;;;25.20;40.87
54122;BME280;40029;58.708;50.190;2023-07-02T05:27:23;98061.31;;;25.52;40.13
